createdAt,value
2022-08-28T00:00:14.216Z,70.64
2022-08-28T00:03:01.916Z,70.11
2022-08-28T00:05:31.460Z,69.61
2022-08-28T00:07:59.717Z,69.74
2022-08-28T00:10:28.579Z,69.61
2022-08-28T00:12:57.573Z,69.62
2022-08-28T00:15:32.752Z,69.97
2022-08-28T00:18:00.514Z,69.36
2022-08-28T00:20:28.918Z,69.20
2022-08-28T00:22:57.460Z,69.09
2022-08-28T00:25:27.291Z,69.14
2022-08-28T00:27:57.562Z,69.89
2022-08-28T00:30:46.492Z,70.14
2022-08-28T00:33:19.811Z,70.73
2022-08-28T00:35:48.409Z,71.02
2022-08-28T00:38:19.966Z,71.87
2022-08-28T00:40:51.700Z,71.71
2022-08-28T00:43:39.153Z,71.47
2022-08-28T00:46:11.167Z,71.20
2022-08-28T00:48:38.734Z,71.35
2022-08-28T00:51:25.261Z,72.61
2022-08-28T00:53:58.567Z,73.91
2022-08-28T00:56:27.962Z,74.37
2022-08-28T00:58:58.386Z,74.00
2022-08-28T01:01:25.679Z,73.71
2022-08-28T01:03:54.021Z,73.90
2022-08-28T01:06:22.061Z,74.03
2022-08-28T01:08:50.602Z,73.82
2022-08-28T01:11:19.508Z,74.09
2022-08-28T01:13:48.700Z,74.11
2022-08-28T01:16:18.216Z,74.31
2022-08-28T01:18:47.506Z,74.40
2022-08-28T01:21:40.068Z,74.57
2022-08-28T01:24:15.045Z,74.51
2022-08-28T01:26:43.549Z,74.10
2022-08-28T01:29:12.131Z,74.56
2022-08-28T01:31:40.012Z,74.75
2022-08-28T01:34:09.544Z,75.02
2022-08-28T01:36:36.916Z,74.88
2022-08-28T01:39:17.507Z,74.67
2022-08-28T01:41:47.875Z,75.19
2022-08-28T01:44:17.809Z,75.70
2022-08-28T01:46:46.490Z,76.17
2022-08-28T01:49:14.231Z,76.20
2022-08-28T01:51:42.231Z,76.08
2022-08-28T01:54:10.928Z,76.64
2022-08-28T01:56:40.513Z,76.75
2022-08-28T01:59:08.746Z,76.85
2022-08-28T02:01:36.090Z,77.25
2022-08-28T02:04:04.546Z,77.00
2022-08-28T02:06:32.082Z,77.09
2022-08-28T02:09:00.566Z,77.86
2022-08-28T02:11:29.833Z,77.62
2022-08-28T02:13:56.892Z,77.70
2022-08-28T02:16:24.125Z,77.84
2022-08-28T02:18:51.183Z,78.13
2022-08-28T02:21:18.351Z,78.41
2022-08-28T02:23:46.925Z,78.07
2022-08-28T02:26:14.888Z,77.84
2022-08-28T02:28:42.804Z,78.21
2022-08-28T02:31:11.052Z,78.18
2022-08-28T02:33:43.721Z,79.18
2022-08-28T02:36:13.276Z,79.63
2022-08-28T02:38:40.899Z,79.91
2022-08-28T02:41:08.308Z,79.26
2022-08-28T02:43:35.665Z,78.97
2022-08-28T02:46:03.956Z,78.77
2022-08-28T02:48:32.903Z,78.39
2022-08-28T02:51:03.047Z,78.69
2022-08-28T02:53:30.580Z,78.58
2022-08-28T02:55:58.939Z,78.54
2022-08-28T02:58:27.372Z,79.29
2022-08-28T03:00:55.172Z,79.03
2022-08-28T03:03:22.492Z,78.96
2022-08-28T03:05:50.103Z,79.37
2022-08-28T03:08:17.747Z,79.48
2022-08-28T03:10:44.951Z,79.16
2022-08-28T03:13:13.976Z,79.53
2022-08-28T03:15:56.017Z,80.03
2022-08-28T03:18:25.562Z,79.79
2022-08-28T03:20:53.216Z,80.24
2022-08-28T03:23:26.434Z,80.08
2022-08-28T03:26:02.869Z,79.91
2022-08-28T03:28:34.122Z,80.41
2022-08-28T03:31:01.762Z,80.18
2022-08-28T03:33:28.728Z,79.85
2022-08-28T03:35:55.765Z,80.53
2022-08-28T03:38:23.112Z,80.67
2022-08-28T03:40:53.877Z,80.40
2022-08-28T03:43:23.604Z,80.43
2022-08-28T03:45:59.040Z,80.09
2022-08-28T03:48:27.941Z,80.49
2022-08-28T03:50:55.815Z,80.59
2022-08-28T03:53:25.355Z,80.84
2022-08-28T03:55:52.709Z,80.28
2022-08-28T03:58:20.468Z,80.37
2022-08-28T04:00:47.906Z,80.10
2022-08-28T04:03:15.277Z,80.09
2022-08-28T04:05:44.502Z,79.77
2022-08-28T04:08:16.693Z,79.38
2022-08-28T04:10:45.274Z,78.66
2022-08-28T04:13:13.127Z,77.52
2022-08-28T04:15:41.460Z,76.80
2022-08-28T04:18:10.354Z,76.50
2022-08-28T04:20:38.452Z,76.30
2022-08-28T04:23:08.014Z,75.64
2022-08-28T04:25:35.273Z,74.78
2022-08-28T04:28:02.845Z,73.40
2022-08-28T04:30:29.922Z,72.99
2022-08-28T04:32:57.757Z,71.94
2022-08-28T04:35:28.242Z,71.18
2022-08-28T04:37:59.015Z,68.89
2022-08-28T04:40:26.888Z,68.43
2022-08-28T04:42:55.179Z,67.97
2022-08-28T04:45:26.300Z,66.89
2022-08-28T04:48:13.661Z,66.82
2022-08-28T04:51:00.218Z,64.14
2022-08-28T04:53:28.806Z,63.03
2022-08-28T04:55:59.266Z,64.20
2022-08-28T04:58:28.416Z,62.67
2022-08-28T05:01:21.427Z,59.90
2022-08-28T05:03:55.169Z,58.65
2022-08-28T05:06:23.150Z,58.38
2022-08-28T05:08:50.346Z,58.49
2022-08-28T05:11:33.598Z,59.25
2022-08-28T05:14:17.197Z,60.23
2022-08-28T05:16:51.946Z,61.28
2022-08-28T05:19:20.373Z,62.03
2022-08-28T05:21:48.148Z,62.05
2022-08-28T05:24:15.234Z,61.58
2022-08-28T05:26:42.547Z,61.00
2022-08-28T05:29:10.832Z,61.47
2022-08-28T05:31:39.363Z,60.99
2022-08-28T05:34:07.535Z,61.14
2022-08-28T05:36:36.919Z,60.31
2022-08-28T05:39:07.808Z,60.80
2022-08-28T05:41:36.102Z,60.65
2022-08-28T05:44:08.772Z,60.40
2022-08-28T05:46:39.651Z,60.71
2022-08-28T05:49:09.993Z,59.55
2022-08-28T05:51:41.003Z,59.58
2022-08-28T05:54:08.754Z,59.75
2022-08-28T05:56:38.440Z,59.22
2022-08-28T05:59:09.243Z,59.06
2022-08-28T06:01:46.082Z,58.72
2022-08-28T06:04:20.569Z,58.64
2022-08-28T06:06:49.514Z,58.62
2022-08-28T06:09:19.444Z,58.35
2022-08-28T06:11:46.984Z,58.87
2022-08-28T06:14:18.102Z,58.69
2022-08-28T06:16:52.582Z,58.23
2022-08-28T06:19:22.813Z,58.65
2022-08-28T06:21:53.555Z,58.35
2022-08-28T06:24:20.842Z,58.30
2022-08-28T06:26:47.920Z,58.56
2022-08-28T06:29:18.532Z,57.80
2022-08-28T06:31:53.766Z,57.53
2022-08-28T06:34:21.293Z,57.18
2022-08-28T06:36:53.162Z,56.76
2022-08-28T06:39:22.197Z,56.15
2022-08-28T06:41:49.568Z,56.07
2022-08-28T06:44:20.063Z,55.11
2022-08-28T06:46:54.046Z,54.42
2022-08-28T06:49:22.051Z,55.09
2022-08-28T06:51:49.459Z,55.13
2022-08-28T06:54:22.251Z,54.19
2022-08-28T06:56:53.128Z,52.57
2022-08-28T06:59:20.402Z,52.81
2022-08-28T07:01:47.977Z,52.43
2022-08-28T07:04:15.432Z,52.34
2022-08-28T07:06:53.761Z,52.85
2022-08-28T07:09:24.216Z,53.18
2022-08-28T07:11:51.509Z,52.25
2022-08-28T07:14:19.057Z,52.51
2022-08-28T07:16:46.487Z,52.71
2022-08-28T07:19:14.237Z,52.08
2022-08-28T07:21:44.189Z,51.60
2022-08-28T07:24:14.947Z,50.65
2022-08-28T07:26:43.703Z,49.58
2022-08-28T07:29:11.972Z,50.41
2022-08-28T07:31:48.459Z,50.76
2022-08-28T07:34:19.154Z,50.76
2022-08-28T07:39:31.511Z,49.96
2022-08-28T07:41:58.925Z,50.33
2022-08-28T07:44:44.767Z,49.31
2022-08-28T07:47:12.612Z,48.69
2022-08-28T07:49:40.806Z,48.99
2022-08-28T07:52:09.009Z,48.96
2022-08-28T07:54:38.262Z,48.44
2022-08-28T07:57:09.309Z,47.98
2022-08-28T07:59:42.267Z,48.32
2022-08-28T08:02:12.821Z,47.87
2022-08-28T08:04:40.638Z,47.37
2022-08-28T08:07:08.681Z,47.37
2022-08-28T08:09:41.765Z,47.52
2022-08-28T08:12:20.708Z,46.21
2022-08-28T08:14:49.968Z,47.00
2022-08-28T08:17:17.279Z,46.95
2022-08-28T08:19:47.043Z,44.93
2022-08-28T08:22:14.498Z,42.50
2022-08-28T08:24:42.878Z,41.31
2022-08-28T08:27:11.062Z,36.88
2022-08-28T08:29:39.151Z,37.04
2022-08-28T08:32:07.981Z,35.25
2022-08-28T08:34:49.621Z,34.08
2022-08-28T08:37:16.737Z,31.63
2022-08-28T08:39:43.889Z,32.66
2022-08-28T08:42:24.322Z,29.31
2022-08-28T08:44:54.117Z,28.26
2022-08-28T08:47:38.770Z,26.57
2022-08-28T08:50:30.704Z,26.84
2022-08-28T08:53:24.197Z,25.73
2022-08-28T08:55:54.522Z,25.73
2022-08-28T08:58:38.985Z,25.31
2022-08-28T09:01:56.521Z,24.94
2022-08-28T09:04:51.687Z,24.53
2022-08-28T09:07:49.194Z,23.82
2022-08-28T09:10:19.726Z,23.96
2022-08-28T09:12:51.770Z,23.15
2022-08-28T09:15:50.818Z,22.98
2022-08-28T09:18:22.399Z,22.62
2022-08-28T09:20:52.064Z,22.32
2022-08-28T09:23:21.218Z,22.00
2022-08-28T09:26:01.548Z,21.63
2022-08-28T09:28:31.529Z,22.16
2022-08-28T09:31:00.797Z,21.16
2022-08-28T09:33:38.365Z,20.45
2022-08-28T09:36:24.270Z,20.67
2022-08-28T09:39:18.182Z,19.82
2022-08-28T09:42:42.394Z,19.13
2022-08-28T09:45:22.599Z,18.16
2022-08-28T09:47:57.271Z,17.82
2022-08-28T09:50:26.083Z,18.44
2022-08-28T09:52:56.543Z,17.92
2022-08-28T09:55:26.650Z,18.69
2022-08-28T09:57:55.364Z,18.73
2022-08-28T10:00:23.138Z,18.44
2022-08-28T10:03:26.518Z,18.14
2022-08-28T10:06:11.254Z,18.08
2022-08-28T10:09:06.398Z,16.79
2022-08-28T10:11:48.878Z,17.02
2022-08-28T10:14:40.915Z,16.45
2022-08-28T10:17:33.045Z,15.88
2022-08-28T10:20:13.088Z,15.82
2022-08-28T10:23:02.328Z,16.69
2022-08-28T10:25:42.526Z,16.60
2022-08-28T10:28:52.691Z,16.34
2022-08-28T10:34:57.330Z,19.01
2022-08-28T10:37:52.943Z,18.84
2022-08-28T10:40:29.186Z,20.10
2022-08-28T10:43:19.900Z,19.86
2022-08-28T10:45:51.822Z,21.11
2022-08-28T10:48:35.476Z,21.87
2022-08-28T10:51:08.658Z,22.61
2022-08-28T10:53:46.532Z,22.52
2022-08-28T10:56:19.670Z,22.60
2022-08-28T10:58:53.567Z,23.13
2022-08-28T11:01:31.314Z,23.39
2022-08-28T11:04:01.788Z,23.47
2022-08-28T11:06:46.309Z,24.67
2022-08-28T11:09:38.098Z,25.51
2022-08-28T11:12:27.952Z,25.52
2022-08-28T11:14:55.239Z,26.62
2022-08-28T11:17:27.915Z,25.93
2022-08-28T11:23:46.246Z,26.65
2022-08-28T11:26:34.471Z,26.72
2022-08-28T11:29:04.368Z,26.45
2022-08-28T11:31:39.607Z,26.28
2022-08-28T11:34:07.374Z,26.83
2022-08-28T11:37:08.155Z,27.75
2022-08-28T11:39:43.531Z,28.41
2022-08-28T11:42:12.923Z,27.40
2022-08-28T11:47:57.854Z,27.97
2022-08-28T11:50:33.260Z,27.87
2022-08-28T11:53:17.605Z,27.59
2022-08-28T11:55:53.867Z,28.88
2022-08-28T11:58:39.598Z,28.52
2022-08-28T12:01:11.383Z,27.32
2022-08-28T12:03:53.783Z,28.19
2022-08-28T12:09:53.135Z,27.13
2022-08-28T12:12:24.572Z,27.91
2022-08-28T12:15:02.916Z,27.68
2022-08-28T12:17:46.657Z,27.59
2022-08-28T12:20:24.154Z,27.03
2022-08-28T12:22:54.715Z,27.77
2022-08-28T12:25:37.994Z,27.32
2022-08-28T12:28:19.201Z,27.33
2022-08-28T12:30:59.501Z,28.25
2022-08-28T12:33:54.122Z,28.95
2022-08-28T12:36:29.934Z,28.83
2022-08-28T12:38:58.561Z,28.94
2022-08-28T12:41:25.694Z,29.46
2022-08-28T12:43:58.623Z,28.66
2022-08-28T12:46:36.395Z,28.38
2022-08-28T12:49:27.297Z,26.71
2022-08-28T12:52:20.916Z,27.89
2022-08-28T12:54:50.178Z,27.02
2022-08-28T12:57:23.479Z,27.33
2022-08-28T12:59:55.647Z,27.47
2022-08-28T13:02:33.894Z,27.44
2022-08-28T13:05:06.992Z,26.41
2022-08-28T13:07:40.595Z,27.09
2022-08-28T13:10:19.628Z,26.67
2022-08-28T13:13:01.968Z,26.83
2022-08-28T13:15:53.672Z,26.30
2022-08-28T13:18:49.948Z,26.59
2022-08-28T13:21:32.769Z,26.31
2022-08-28T13:24:32.277Z,26.71
2022-08-28T13:27:24.686Z,27.20
2022-08-28T13:30:14.155Z,26.97
2022-08-28T13:33:06.462Z,26.85
2022-08-28T13:35:43.014Z,25.81
2022-08-28T13:38:13.242Z,26.00
2022-08-28T13:41:04.475Z,27.42
2022-08-28T13:43:44.786Z,27.67
2022-08-28T13:46:12.597Z,27.55
2022-08-28T13:48:39.788Z,27.02
2022-08-28T13:51:12.702Z,27.86
2022-08-28T13:53:48.514Z,28.03
2022-08-28T13:56:17.328Z,27.69
2022-08-28T13:58:45.022Z,28.00
2022-08-28T14:01:48.871Z,27.45
2022-08-28T14:04:22.770Z,27.11
2022-08-28T14:06:51.486Z,27.96
2022-08-28T14:09:18.970Z,28.00
2022-08-28T14:11:50.641Z,27.95
2022-08-28T14:14:20.248Z,28.24
2022-08-28T14:16:49.145Z,28.38
2022-08-28T14:19:16.701Z,27.55
2022-08-28T14:21:43.953Z,27.91
2022-08-28T14:24:12.017Z,28.34
2022-08-28T14:26:40.666Z,28.00
2022-08-28T14:29:10.226Z,28.21
2022-08-28T14:31:43.545Z,28.02
2022-08-28T14:34:13.745Z,27.06
2022-08-28T14:36:41.902Z,27.90
2022-08-28T14:42:45.879Z,27.33
2022-08-28T14:45:14.279Z,28.17
2022-08-28T14:48:03.284Z,27.23
2022-08-28T14:50:34.226Z,27.73
2022-08-28T14:53:10.273Z,28.18
2022-08-28T14:55:42.247Z,27.39
2022-08-28T14:58:09.309Z,27.66
2022-08-28T15:00:42.463Z,27.35
2022-08-28T15:03:10.859Z,27.36
2022-08-28T15:05:38.428Z,27.16
2022-08-28T15:08:11.620Z,28.18
2022-08-28T15:10:42.636Z,27.37
2022-08-28T15:13:12.981Z,27.42
2022-08-28T15:15:43.309Z,26.91
2022-08-28T15:18:11.567Z,27.01
2022-08-28T15:26:29.378Z,27.54
2022-08-28T15:29:04.422Z,28.11
2022-08-28T15:31:36.749Z,27.37
2022-08-28T15:34:13.621Z,27.48
2022-08-28T15:36:45.659Z,27.81
2022-08-28T15:39:45.145Z,28.13
2022-08-28T15:42:13.421Z,28.56
2022-08-28T15:44:41.053Z,27.74
2022-08-28T15:47:09.271Z,28.02
2022-08-28T15:49:47.525Z,28.77
2022-08-28T15:52:18.880Z,28.44
2022-08-28T15:54:46.795Z,27.89
2022-08-28T15:57:14.501Z,28.54
2022-08-28T15:59:49.841Z,29.05
2022-08-28T16:02:24.673Z,28.92
2022-08-28T16:04:54.159Z,29.08
2022-08-28T16:07:23.152Z,29.59
2022-08-28T16:09:50.887Z,29.19
2022-08-28T16:12:18.925Z,29.54
2022-08-28T16:14:46.697Z,30.03
2022-08-28T16:17:15.827Z,30.13
2022-08-28T16:19:45.145Z,30.44
2022-08-28T16:22:16.134Z,30.70
2022-08-28T16:24:44.909Z,30.89
2022-08-28T16:27:15.345Z,30.76
2022-08-28T16:29:44.615Z,30.68
2022-08-28T16:32:14.269Z,31.25
2022-08-28T16:34:51.832Z,31.28
2022-08-28T16:37:40.118Z,31.89
2022-08-28T16:40:29.854Z,32.01
2022-08-28T16:42:59.847Z,32.26
2022-08-28T16:45:26.928Z,32.37
2022-08-28T16:47:54.171Z,32.56
2022-08-28T16:50:21.677Z,33.52
2022-08-28T16:52:48.773Z,33.92
2022-08-28T16:55:16.575Z,34.39
2022-08-28T16:57:45.153Z,34.83
2022-08-28T17:00:13.545Z,35.28
2022-08-28T17:02:41.616Z,35.71
2022-08-28T17:05:09.877Z,36.63
2022-08-28T17:07:37.017Z,37.57
2022-08-28T17:10:06.654Z,38.12
2022-08-28T17:12:34.315Z,39.89
2022-08-28T17:15:03.881Z,40.76
2022-08-28T17:17:32.350Z,41.11
2022-08-28T17:20:00.731Z,42.15
2022-08-28T17:22:32.874Z,42.90
2022-08-28T17:25:28.522Z,43.34
2022-08-28T17:27:56.114Z,43.14
2022-08-28T17:30:23.735Z,44.08
2022-08-28T17:32:52.211Z,44.15
2022-08-28T17:35:19.522Z,43.46
2022-08-28T17:37:48.657Z,42.97
2022-08-28T17:40:25.481Z,42.52
2022-08-28T17:42:58.196Z,42.08
2022-08-28T17:45:28.709Z,41.97
2022-08-28T17:47:56.701Z,41.88
2022-08-28T17:50:24.224Z,41.83
2022-08-28T17:52:51.739Z,41.67
2022-08-28T17:55:20.326Z,42.23
2022-08-28T17:57:48.000Z,42.83
2022-08-28T18:00:16.743Z,43.48
2022-08-28T18:02:50.876Z,43.48
2022-08-28T18:05:18.256Z,43.21
2022-08-28T18:07:45.579Z,44.13
2022-08-28T18:12:58.301Z,44.83
2022-08-28T18:15:25.713Z,45.32
2022-08-28T18:17:53.431Z,45.58
2022-08-28T18:20:22.397Z,46.39
2022-08-28T18:22:51.677Z,46.51
2022-08-28T18:25:39.446Z,46.92
2022-08-28T18:28:22.194Z,47.39
2022-08-28T18:30:52.364Z,47.78
2022-08-28T18:33:28.086Z,48.50
2022-08-28T18:36:00.338Z,48.71
2022-08-28T18:38:28.832Z,48.51
2022-08-28T18:41:00.500Z,48.36
2022-08-28T18:43:27.790Z,49.12
2022-08-28T18:45:56.236Z,48.96
2022-08-28T18:48:23.633Z,49.41
2022-08-28T18:50:52.534Z,49.71
2022-08-28T18:53:22.043Z,50.00
2022-08-28T18:55:52.873Z,49.88
2022-08-28T18:58:31.437Z,50.02
2022-08-28T19:01:03.358Z,50.44
2022-08-28T19:03:30.929Z,50.71
2022-08-28T19:05:58.096Z,51.58
2022-08-28T19:08:26.008Z,51.71
2022-08-28T19:10:54.280Z,52.79
2022-08-28T19:13:22.000Z,52.86
2022-08-28T19:18:52.766Z,53.87
2022-08-28T19:21:21.078Z,53.45
2022-08-28T19:23:56.155Z,53.78
2022-08-28T19:26:28.142Z,54.14
2022-08-28T19:28:57.521Z,54.52
2022-08-28T19:31:41.316Z,54.89
2022-08-28T19:34:11.398Z,54.53
2022-08-28T19:36:41.942Z,54.76
2022-08-28T19:39:09.528Z,55.10
2022-08-28T19:41:37.352Z,55.24
2022-08-28T19:44:05.227Z,55.36
2022-08-28T19:46:34.460Z,54.92
2022-08-28T19:49:03.871Z,55.02
2022-08-28T19:51:33.701Z,56.22
2022-08-28T19:54:06.845Z,56.19
2022-08-28T19:59:03.973Z,57.38
2022-08-28T20:01:35.521Z,57.62
2022-08-28T20:04:15.456Z,58.00
2022-08-28T20:06:42.551Z,58.06
2022-08-28T20:09:13.055Z,58.68
2022-08-28T20:11:47.950Z,58.81
2022-08-28T20:14:17.870Z,59.03
2022-08-28T20:16:48.570Z,58.50
2022-08-28T20:19:15.726Z,57.75
2022-08-28T20:21:47.151Z,57.40
2022-08-28T20:24:20.589Z,57.83
2022-08-28T20:26:48.592Z,57.91
2022-08-28T20:29:15.988Z,58.08
2022-08-28T20:31:45.416Z,58.10
2022-08-28T20:34:13.728Z,58.43
2022-08-28T20:36:40.765Z,58.74
2022-08-28T20:39:14.721Z,58.74
2022-08-28T20:41:44.471Z,58.82
2022-08-28T20:44:14.439Z,58.61
2022-08-28T20:46:42.407Z,58.80
2022-08-28T20:49:11.503Z,58.93
2022-08-28T20:51:58.827Z,59.01
2022-08-28T20:54:29.448Z,59.26
2022-08-28T20:56:58.022Z,59.36
2022-08-28T20:59:28.922Z,59.53
2022-08-28T21:02:13.404Z,60.02
2022-08-28T21:04:43.666Z,60.18
2022-08-28T21:07:12.764Z,60.29
2022-08-28T21:10:03.991Z,60.43
2022-08-28T21:12:29.174Z,60.39
2022-08-28T21:14:56.263Z,60.26
2022-08-28T21:17:29.571Z,60.45
2022-08-28T21:20:04.611Z,60.15
2022-08-28T21:22:33.053Z,59.99
2022-08-28T21:25:06.283Z,60.38
2022-08-28T21:27:34.092Z,60.25
2022-08-28T21:30:01.836Z,60.46
2022-08-28T21:32:34.021Z,61.25
2022-08-28T21:35:04.160Z,61.57
2022-08-28T21:37:31.425Z,61.54
2022-08-28T21:39:59.695Z,61.97
2022-08-28T21:42:27.056Z,62.35
2022-08-28T21:44:54.814Z,61.93
2022-08-28T21:47:23.358Z,62.23
2022-08-28T21:49:52.228Z,62.35
2022-08-28T21:52:22.051Z,62.93
2022-08-28T21:54:55.907Z,63.34
2022-08-28T21:57:24.304Z,63.56
2022-08-28T21:59:51.556Z,63.28
2022-08-28T22:02:18.659Z,63.11
2022-08-28T22:07:26.869Z,63.46
2022-08-28T22:09:54.279Z,63.59
2022-08-28T22:12:22.351Z,63.88
2022-08-28T22:14:49.369Z,63.88
2022-08-28T22:17:17.996Z,64.01
2022-08-28T22:19:47.565Z,63.80
2022-08-28T22:22:34.925Z,64.31
2022-08-28T22:25:02.958Z,63.86
2022-08-28T22:27:32.030Z,63.89
2022-08-28T22:29:59.054Z,63.60
2022-08-28T22:32:27.976Z,64.18
2022-08-28T22:37:47.101Z,65.05
2022-08-28T22:40:14.791Z,64.64
2022-08-28T22:42:42.789Z,64.88
2022-08-28T22:45:10.048Z,64.67
2022-08-28T22:47:47.066Z,65.14
2022-08-28T22:50:15.023Z,65.60
2022-08-28T22:52:46.813Z,65.50
2022-08-28T22:55:15.745Z,65.30
2022-08-28T22:57:43.266Z,66.15
2022-08-28T23:00:14.590Z,65.96
2022-08-28T23:02:42.532Z,66.82
2022-08-28T23:05:10.947Z,66.65
2022-08-28T23:07:38.792Z,66.26
2022-08-28T23:10:08.048Z,66.68
2022-08-28T23:12:35.300Z,66.91
2022-08-28T23:15:07.478Z,67.10
2022-08-28T23:17:34.767Z,67.10
2022-08-28T23:20:04.849Z,67.57
2022-08-28T23:22:31.865Z,67.52
2022-08-28T23:24:59.537Z,67.61
2022-08-28T23:27:42.287Z,67.28
2022-08-28T23:30:10.721Z,68.00
2022-08-28T23:32:38.329Z,68.19
2022-08-28T23:35:07.318Z,68.13
2022-08-28T23:37:35.323Z,67.88
2022-08-28T23:40:05.094Z,67.48
2022-08-28T23:42:34.894Z,67.01
2022-08-28T23:45:02.280Z,66.86
2022-08-28T23:47:32.440Z,67.04
2022-08-28T23:49:59.629Z,67.34
2022-08-28T23:52:30.956Z,67.86
2022-08-28T23:55:07.105Z,68.18
2022-08-28T23:57:36.656Z,68.39
